Porto, Brazil
Current Conditions -  °F | °C
As of 9:00 AM on Thursday 27 Nov 2014 (Local Time) from SBTE Reporting Station
Clear Clear  
Wind Chill: 86°   Ceiling: Unl
Heat Index: 87°   Visibility: 6mi
Dew Point: 64°   Wind: 7mph
Humidity: 48%   Direction: 60°ENE
Pressure: 29.88"   Gusts: NA
Location:  3.89°S, 42.71°W
Report Text: SBTE 271200Z 06006KT CAVOK 30/18 Q1012
Loading
Personal Weather Stations






























Interactive Weather Map New forecast layout! Learn more

10-Day Weather Forecast

Advertisements
Track Severe Weather on mobile